createdAt,value
2023-11-07T00:07:50.299Z,0.82
2023-11-07T00:22:42.434Z,0.70
2023-11-07T00:37:36.235Z,0.52
2023-11-07T00:52:29.796Z,0.60
2023-11-07T01:07:21.948Z,0.76
2023-11-07T01:22:13.846Z,0.73
2023-11-07T01:37:04.527Z,0.60
2023-11-07T01:52:06.044Z,0.80
2023-11-07T02:07:08.468Z,0.62
2023-11-07T02:21:59.929Z,0.58
2023-11-07T02:36:53.552Z,0.60
2023-11-07T02:51:46.630Z,0.48
2023-11-07T03:06:38.224Z,0.71
2023-11-07T03:21:30.872Z,0.54
2023-11-07T03:36:23.075Z,0.68
2023-11-07T04:36:20.900Z,0.70
2023-11-07T06:35:25.913Z,0.80
2023-11-07T06:50:16.449Z,0.74
2023-11-07T07:05:08.950Z,1.10
2023-11-07T07:20:01.486Z,0.90
2023-11-07T07:34:53.033Z,0.90
2023-11-07T07:49:45.496Z,1.16
2023-11-07T08:04:48.506Z,0.72
2023-11-07T08:19:39.828Z,0.89
2023-11-07T08:34:32.025Z,0.73
2023-11-07T08:49:24.193Z,1.00
2023-11-07T09:04:15.583Z,0.80
2023-11-07T09:19:07.618Z,0.80
2023-11-07T09:33:58.883Z,0.82
2023-11-07T09:48:49.960Z,0.70
2023-11-07T10:03:41.696Z,0.90
2023-11-07T10:18:32.444Z,0.63
2023-11-07T10:33:28.303Z,0.70
2023-11-07T10:48:24.031Z,0.71
2023-11-07T11:03:16.611Z,0.60
2023-11-07T11:18:09.570Z,1.78
2023-11-07T11:33:09.609Z,1.03
2023-11-07T11:48:05.850Z,0.78
2023-11-07T12:02:59.508Z,0.80
2023-11-07T12:17:52.775Z,0.94
2023-11-07T12:32:46.957Z,0.80
2023-11-07T12:47:42.667Z,0.71
2023-11-07T13:02:34.588Z,0.60
2023-11-07T13:17:27.630Z,0.51
2023-11-07T13:32:17.177Z,0.52
2023-11-07T13:47:08.087Z,0.60
2023-11-07T14:01:59.988Z,0.70
2023-11-07T14:16:51.074Z,0.68
2023-11-07T14:46:37.511Z,0.69
2023-11-07T15:01:28.893Z,0.68
2023-11-07T15:16:21.112Z,0.70
2023-11-07T15:46:04.258Z,1.18
2023-11-07T16:15:49.521Z,1.00
2023-11-07T16:45:32.579Z,1.30
2023-11-07T18:30:07.366Z,1.76
2023-11-07T18:45:01.367Z,1.70
2023-11-07T18:59:54.512Z,2.46
2023-11-07T19:14:45.545Z,1.93
2023-11-07T19:29:37.267Z,1.49
2023-11-07T19:44:28.826Z,1.70
2023-11-07T19:59:19.896Z,1.92
2023-11-07T20:14:10.206Z,1.61
2023-11-07T20:29:01.274Z,1.30
2023-11-07T20:43:53.787Z,1.93
2023-11-07T20:58:45.501Z,1.81
2023-11-07T21:13:37.036Z,1.47
2023-11-07T21:28:30.001Z,2.23
2023-11-07T21:43:22.501Z,3.11
2023-11-07T21:58:14.013Z,1.30
2023-11-07T22:13:05.237Z,1.39
2023-11-07T22:27:56.284Z,1.46
2023-11-07T22:42:48.202Z,1.36
2023-11-07T22:57:39.778Z,1.39
2023-11-07T23:12:31.685Z,1.60
2023-11-07T23:27:23.356Z,1.59
2023-11-07T23:42:16.199Z,1.26
2023-11-07T23:57:10.437Z,1.60
